createdAt,value
2017-09-07T00:00:31.000Z,13.80
2017-09-07T00:02:57.027Z,13.70
2017-09-07T00:05:23.052Z,13.80
2017-09-07T00:07:49.385Z,13.80
2017-09-07T00:10:15.406Z,13.70
2017-09-07T00:12:41.422Z,13.80
2017-09-07T00:15:39.787Z,13.80
2017-09-07T00:18:05.830Z,13.80
2017-09-07T00:20:31.850Z,13.80
2017-09-07T00:22:57.882Z,13.80
2017-09-07T00:25:23.930Z,13.80
2017-09-07T00:27:49.985Z,13.80
2017-09-07T00:30:16.782Z,13.80
2017-09-07T00:32:42.818Z,13.80
2017-09-07T00:35:08.839Z,13.80
2017-09-07T00:37:34.902Z,13.80
2017-09-07T00:40:01.682Z,13.80
2017-09-07T00:42:27.707Z,13.80
2017-09-07T00:44:53.757Z,13.80
2017-09-07T00:47:19.818Z,13.70
2017-09-07T00:49:45.851Z,13.70
2017-09-07T00:52:11.898Z,13.70
2017-09-07T00:54:37.927Z,13.70
2017-09-07T00:57:03.990Z,13.80
2017-09-07T00:59:30.769Z,13.70
2017-09-07T01:01:56.786Z,13.70
2017-09-07T01:04:23.004Z,13.70
2017-09-07T01:06:49.078Z,13.70
2017-09-07T01:09:15.866Z,13.80
2017-09-07T01:11:41.954Z,13.80
2017-09-07T01:14:08.710Z,13.80
2017-09-07T01:16:34.786Z,13.70
2017-09-07T01:19:01.175Z,13.70
2017-09-07T01:21:27.198Z,13.70
2017-09-07T01:23:53.242Z,13.70
2017-09-07T01:26:19.550Z,13.60
2017-09-07T01:28:45.590Z,13.60
2017-09-07T01:31:11.653Z,13.60
2017-09-07T01:33:38.052Z,13.60
2017-09-07T01:36:04.112Z,13.60
2017-09-07T01:38:32.194Z,13.50
2017-09-07T01:40:58.961Z,13.50
2017-09-07T01:43:25.003Z,13.50
2017-09-07T01:45:51.311Z,13.60
2017-09-07T01:51:17.559Z,13.50
2017-09-07T01:53:43.570Z,13.60
2017-09-07T01:56:09.596Z,13.60
2017-09-07T01:58:35.922Z,13.50
2017-09-07T02:01:01.948Z,13.60
2017-09-07T02:03:27.978Z,13.70
2017-09-07T02:05:54.100Z,13.60
2017-09-07T02:08:20.131Z,13.70
2017-09-07T02:10:46.199Z,13.70
2017-09-07T02:13:13.166Z,13.70
2017-09-07T02:15:39.195Z,13.60
2017-09-07T02:18:05.906Z,13.70
2017-09-07T02:20:32.704Z,13.60
2017-09-07T02:22:58.730Z,13.60
2017-09-07T02:25:24.733Z,13.60
2017-09-07T02:27:51.032Z,13.60
2017-09-07T02:30:17.086Z,13.50
2017-09-07T02:32:43.097Z,13.50
2017-09-07T02:35:09.141Z,13.50
2017-09-07T02:37:35.159Z,13.40
2017-09-07T02:40:01.187Z,13.50
2017-09-07T02:42:27.235Z,13.60
2017-09-07T02:44:54.002Z,13.60
2017-09-07T02:47:20.031Z,13.60
2017-09-07T02:49:46.058Z,13.50
2017-09-07T02:52:12.094Z,13.50
2017-09-07T02:54:38.158Z,13.50
2017-09-07T02:57:04.920Z,13.70
2017-09-07T02:59:30.947Z,13.60
2017-09-07T03:01:57.287Z,13.70
2017-09-07T03:04:23.369Z,13.60
2017-09-07T03:06:50.174Z,13.60
2017-09-07T03:09:16.218Z,13.60
2017-09-07T03:11:42.225Z,13.60
2017-09-07T03:14:08.236Z,13.60
2017-09-07T03:16:34.362Z,13.60
2017-09-07T03:19:00.378Z,13.60
2017-09-07T03:21:26.434Z,13.60
2017-09-07T03:23:53.221Z,13.70
2017-09-07T03:26:19.246Z,13.70
2017-09-07T03:28:45.262Z,13.70
2017-09-07T03:31:11.327Z,13.70
2017-09-07T03:33:37.353Z,13.80
2017-09-07T03:36:04.128Z,13.70
2017-09-07T03:38:30.574Z,13.70
2017-09-07T03:40:56.867Z,13.70
2017-09-07T03:43:23.634Z,13.80
2017-09-07T03:45:49.855Z,13.80
2017-09-07T03:48:15.890Z,13.80
2017-09-07T03:50:41.934Z,13.80
2017-09-07T03:53:08.035Z,13.80
2017-09-07T03:55:34.066Z,13.80
2017-09-07T03:58:00.083Z,13.70
2017-09-07T04:00:26.165Z,13.80
2017-09-07T04:02:52.911Z,13.80
2017-09-07T04:05:19.664Z,13.70
2017-09-07T04:07:45.905Z,13.60
2017-09-07T04:10:11.953Z,13.60
2017-09-07T04:12:37.967Z,13.60
2017-09-07T04:15:04.057Z,13.60
2017-09-07T04:17:30.079Z,13.60
2017-09-07T04:19:56.110Z,13.60
2017-09-07T04:22:22.655Z,13.60
2017-09-07T04:24:48.671Z,13.60
2017-09-07T04:27:14.698Z,13.60
2017-09-07T04:29:40.712Z,13.60
2017-09-07T04:32:06.738Z,13.70
2017-09-07T04:34:32.797Z,13.70
2017-09-07T04:36:58.841Z,13.80
2017-09-07T04:39:25.618Z,13.90
2017-09-07T04:41:51.826Z,13.80
2017-09-07T04:44:17.850Z,13.80
2017-09-07T04:46:43.874Z,13.80
2017-09-07T04:49:09.943Z,13.70
2017-09-07T04:51:36.004Z,13.70
2017-09-07T04:54:02.050Z,13.70
2017-09-07T04:56:28.201Z,13.70
2017-09-07T04:58:54.242Z,13.70
2017-09-07T05:01:21.031Z,13.70
2017-09-07T05:03:47.243Z,13.60
2017-09-07T05:06:13.270Z,13.70
2017-09-07T05:08:39.294Z,13.70
2017-09-07T05:11:05.618Z,13.70
2017-09-07T05:13:31.647Z,13.60
2017-09-07T05:15:57.696Z,13.60
2017-09-07T05:18:23.745Z,13.60
2017-09-07T05:20:50.512Z,13.70
2017-09-07T05:23:16.586Z,13.70
2017-09-07T05:25:42.628Z,13.70
2017-09-07T05:28:09.381Z,13.80
2017-09-07T05:30:36.452Z,13.80
2017-09-07T05:33:02.520Z,13.80
2017-09-07T05:35:28.701Z,13.80
2017-09-07T05:37:54.773Z,13.80
2017-09-07T05:40:20.803Z,13.80
2017-09-07T05:42:47.565Z,13.90
2017-09-07T05:45:14.635Z,14.00
2017-09-07T05:47:40.652Z,14.00
2017-09-07T05:50:06.680Z,14.00
2017-09-07T05:52:32.736Z,14.00
2017-09-07T05:54:58.784Z,14.00
2017-09-07T05:57:25.595Z,14.10
2017-09-07T05:59:51.705Z,14.10
2017-09-07T06:02:17.761Z,14.00
2017-09-07T06:04:43.785Z,13.90
2017-09-07T06:07:10.579Z,13.80
2017-09-07T06:09:36.601Z,13.80
2017-09-07T06:12:02.643Z,13.90
2017-09-07T06:14:28.705Z,13.80
2017-09-07T06:16:54.829Z,14.00
2017-09-07T06:19:21.586Z,14.00
2017-09-07T06:21:47.658Z,14.00
2017-09-07T06:24:13.662Z,14.00
2017-09-07T06:26:39.692Z,14.00
2017-09-07T06:29:05.768Z,14.10
2017-09-07T06:31:31.794Z,14.20
2017-09-07T06:33:57.829Z,14.10
2017-09-07T06:36:23.915Z,14.10
2017-09-07T06:38:50.820Z,14.10
2017-09-07T06:41:16.878Z,14.10
2017-09-07T06:43:43.951Z,14.30
2017-09-07T06:46:09.999Z,14.30
2017-09-07T06:48:36.432Z,14.30
2017-09-07T06:51:02.834Z,14.20
2017-09-07T06:53:28.883Z,14.30
2017-09-07T06:55:55.727Z,14.50
2017-09-07T06:58:21.781Z,14.50
2017-09-07T07:00:47.830Z,14.50
2017-09-07T07:03:13.907Z,14.50
2017-09-07T07:05:40.290Z,14.60
2017-09-07T07:08:06.311Z,14.50
2017-09-07T07:10:32.348Z,14.60
2017-09-07T07:12:58.573Z,14.50
2017-09-07T07:15:25.288Z,14.60
2017-09-07T07:17:51.376Z,14.70
2017-09-07T07:20:17.652Z,14.70
2017-09-07T07:22:43.685Z,14.60
2017-09-07T07:25:09.722Z,14.60
2017-09-07T07:27:35.781Z,14.50
2017-09-07T07:30:02.858Z,14.70
2017-09-07T07:32:30.493Z,14.70
2017-09-07T07:34:57.577Z,14.70
2017-09-07T07:37:24.199Z,14.70
2017-09-07T07:39:50.210Z,14.80
2017-09-07T07:42:16.329Z,14.80
2017-09-07T07:44:43.162Z,14.80
2017-09-07T07:47:09.923Z,14.80
2017-09-07T07:49:35.951Z,14.80
2017-09-07T07:52:01.998Z,14.90
2017-09-07T07:54:28.036Z,14.80
2017-09-07T07:56:54.065Z,14.70
2017-09-07T07:59:21.146Z,14.70
2017-09-07T08:01:48.232Z,14.80
2017-09-07T08:04:14.537Z,14.80
2017-09-07T08:06:40.570Z,14.80
2017-09-07T08:09:06.842Z,14.80
2017-09-07T08:11:33.594Z,14.90
2017-09-07T08:14:00.739Z,14.90
2017-09-07T08:16:27.535Z,14.80
2017-09-07T08:18:53.762Z,14.80
2017-09-07T08:21:19.785Z,14.70
2017-09-07T08:23:45.814Z,14.50
2017-09-07T08:26:11.874Z,14.60
2017-09-07T08:28:40.540Z,14.80
2017-09-07T08:31:06.624Z,14.70
2017-09-07T08:33:32.678Z,14.80
2017-09-07T08:35:58.719Z,14.90
2017-09-07T08:38:25.490Z,14.90
2017-09-07T08:40:51.542Z,14.90
2017-09-07T08:43:17.934Z,15.10
2017-09-07T08:45:43.942Z,15.00
2017-09-07T08:48:09.992Z,15.00
2017-09-07T08:50:36.218Z,15.00
2017-09-07T08:53:02.255Z,15.00
2017-09-07T08:55:29.351Z,15.00
2017-09-07T08:57:56.126Z,15.10
2017-09-07T09:00:22.178Z,15.10
2017-09-07T09:02:48.235Z,15.10
2017-09-07T09:05:14.276Z,15.10
2017-09-07T09:07:40.310Z,15.10
2017-09-07T09:10:06.319Z,15.10
2017-09-07T09:12:34.526Z,15.00
2017-09-07T09:15:00.605Z,15.00
2017-09-07T09:17:26.645Z,15.00
2017-09-07T09:19:52.662Z,14.80
2017-09-07T09:22:18.679Z,14.80
2017-09-07T09:24:44.908Z,14.80
2017-09-07T09:27:10.927Z,14.80
2017-09-07T09:29:36.956Z,14.90
2017-09-07T09:32:03.025Z,14.90
2017-09-07T09:34:29.059Z,14.90
2017-09-07T09:36:55.814Z,14.80
2017-09-07T09:39:22.591Z,14.80
2017-09-07T09:41:48.610Z,14.80
2017-09-07T09:44:14.620Z,14.80
2017-09-07T09:46:41.474Z,14.80
2017-09-07T09:49:08.389Z,14.90
2017-09-07T09:51:34.415Z,14.90
2017-09-07T09:54:00.590Z,15.00
2017-09-07T09:56:26.650Z,15.00
2017-09-07T09:58:52.665Z,15.00
2017-09-07T10:01:19.458Z,15.10
2017-09-07T10:03:45.877Z,15.10
2017-09-07T10:06:11.922Z,15.10
2017-09-07T10:08:37.956Z,15.20
2017-09-07T10:11:04.868Z,15.30
2017-09-07T10:13:30.878Z,15.30
2017-09-07T10:15:56.963Z,15.40
2017-09-07T10:18:23.022Z,15.60
2017-09-07T10:20:49.042Z,16.00
2017-09-07T10:23:15.100Z,16.10
2017-09-07T10:25:41.134Z,16.10
2017-09-07T10:28:07.934Z,15.80
2017-09-07T10:30:34.035Z,15.80
2017-09-07T10:33:00.076Z,15.70
2017-09-07T10:35:26.122Z,15.60
2017-09-07T10:37:52.174Z,15.50
2017-09-07T10:40:18.944Z,15.60
2017-09-07T10:42:44.994Z,15.60
2017-09-07T10:45:11.026Z,15.90
2017-09-07T10:47:37.042Z,16.70
2017-09-07T10:50:03.075Z,17.60
2017-09-07T10:52:29.210Z,17.80
2017-09-07T10:54:57.203Z,17.80
2017-09-07T10:57:25.658Z,17.80
2017-09-07T10:59:53.402Z,17.70
2017-09-07T11:02:22.187Z,17.70
2017-09-07T11:04:48.599Z,17.60
2017-09-07T11:07:16.565Z,17.30
2017-09-07T11:09:42.937Z,17.30
2017-09-07T11:12:09.986Z,17.10
2017-09-07T11:14:36.050Z,17.10
2017-09-07T11:17:02.126Z,17.00
2017-09-07T11:19:29.772Z,16.90
2017-09-07T11:21:55.798Z,16.90
2017-09-07T11:24:22.582Z,16.80
2017-09-07T11:26:48.911Z,16.80
2017-09-07T11:29:15.014Z,16.80
2017-09-07T11:31:41.084Z,16.90
2017-09-07T11:34:07.256Z,17.00
2017-09-07T11:36:33.327Z,17.20
2017-09-07T11:38:59.389Z,17.30
2017-09-07T11:41:26.363Z,17.20
2017-09-07T11:43:52.403Z,17.20
2017-09-07T11:46:18.439Z,17.10
2017-09-07T11:48:44.549Z,17.20
2017-09-07T11:51:10.863Z,17.40
2017-09-07T11:53:36.891Z,17.50
2017-09-07T11:56:03.204Z,17.70
2017-09-07T11:58:29.341Z,17.80
2017-09-07T12:00:56.126Z,17.90
2017-09-07T12:03:22.205Z,17.90
2017-09-07T12:05:48.342Z,17.90
2017-09-07T12:08:15.200Z,17.80
2017-09-07T12:10:41.394Z,17.80
2017-09-07T12:13:07.504Z,17.80
2017-09-07T12:15:33.559Z,17.70
2017-09-07T12:18:00.349Z,17.50
2017-09-07T12:20:26.403Z,17.50
2017-09-07T12:22:52.482Z,17.40
2017-09-07T12:25:18.531Z,17.40
2017-09-07T12:27:44.586Z,17.30
2017-09-07T12:30:10.649Z,17.20
2017-09-07T12:32:37.424Z,17.00
2017-09-07T12:35:03.474Z,16.90
2017-09-07T12:37:29.583Z,17.00
2017-09-07T12:39:56.280Z,16.90
2017-09-07T12:42:23.109Z,17.00
2017-09-07T12:44:50.298Z,17.00
2017-09-07T12:47:16.376Z,16.90
2017-09-07T12:49:43.149Z,17.00
2017-09-07T12:52:09.813Z,16.90
2017-09-07T12:54:35.894Z,17.00
2017-09-07T12:57:01.958Z,16.90
2017-09-07T12:59:28.015Z,16.90
2017-09-07T13:01:54.883Z,16.90
2017-09-07T13:04:20.921Z,16.90
2017-09-07T13:06:47.010Z,16.80
2017-09-07T13:09:13.838Z,16.80
2017-09-07T13:11:39.858Z,16.80
2017-09-07T13:14:05.921Z,16.80
2017-09-07T13:16:32.607Z,16.80
2017-09-07T13:18:58.667Z,16.80
2017-09-07T13:21:24.726Z,16.90
2017-09-07T13:23:50.821Z,16.80
2017-09-07T13:26:19.412Z,16.90
2017-09-07T13:28:45.486Z,16.90
2017-09-07T13:31:11.527Z,16.90
2017-09-07T13:33:44.271Z,16.90
2017-09-07T13:36:10.302Z,16.90
2017-09-07T13:38:36.340Z,16.90
2017-09-07T13:41:04.039Z,16.90
2017-09-07T13:43:30.052Z,16.90
2017-09-07T13:45:56.059Z,16.90
2017-09-07T13:48:22.916Z,16.90
2017-09-07T13:50:52.168Z,16.90
2017-09-07T13:53:18.231Z,17.00
2017-09-07T13:55:44.259Z,17.00
2017-09-07T13:58:10.286Z,17.00
2017-09-07T14:00:37.221Z,17.00
2017-09-07T14:03:03.614Z,17.00
2017-09-07T14:05:30.376Z,17.10
2017-09-07T14:07:57.170Z,17.20
2017-09-07T14:10:23.240Z,17.10
2017-09-07T14:12:49.251Z,17.20
2017-09-07T14:15:16.182Z,17.10
2017-09-07T14:17:42.972Z,17.20
2017-09-07T14:20:09.007Z,17.20
2017-09-07T14:22:35.043Z,17.20
2017-09-07T14:25:01.110Z,17.30
2017-09-07T14:27:27.452Z,17.20
2017-09-07T14:29:53.479Z,17.20
2017-09-07T14:32:19.527Z,17.20
2017-09-07T14:34:45.930Z,17.20
2017-09-07T14:37:11.952Z,17.20
2017-09-07T14:39:38.018Z,17.20
2017-09-07T14:42:04.070Z,17.10
2017-09-07T14:44:30.111Z,17.00
2017-09-07T14:46:56.645Z,17.00
2017-09-07T14:49:22.676Z,16.90
2017-09-07T14:51:48.694Z,16.80
2017-09-07T14:54:15.032Z,16.80
2017-09-07T14:56:41.091Z,16.70
2017-09-07T14:59:07.912Z,16.60
2017-09-07T15:01:34.431Z,16.60
2017-09-07T15:04:00.446Z,16.60
2017-09-07T15:06:26.483Z,16.60
2017-09-07T15:08:52.550Z,16.60
2017-09-07T15:11:18.624Z,16.50
2017-09-07T15:13:44.711Z,16.40
2017-09-07T15:16:10.747Z,16.40
2017-09-07T15:18:36.770Z,16.40
2017-09-07T15:21:02.826Z,16.50
2017-09-07T15:23:28.851Z,16.50
2017-09-07T15:25:54.874Z,16.40
2017-09-07T15:28:20.962Z,16.40
2017-09-07T15:30:46.986Z,16.40
2017-09-07T15:33:13.039Z,16.40
2017-09-07T15:35:39.439Z,16.40
2017-09-07T15:38:05.470Z,16.40
2017-09-07T15:40:31.497Z,16.50
2017-09-07T15:42:57.514Z,16.60
2017-09-07T15:45:23.530Z,16.80
2017-09-07T15:47:49.601Z,17.00
2017-09-07T15:50:16.590Z,17.10
2017-09-07T15:52:42.612Z,17.10
2017-09-07T15:55:08.648Z,17.20
2017-09-07T15:57:34.690Z,17.10
2017-09-07T16:00:00.745Z,17.20
2017-09-07T16:02:27.517Z,17.10
2017-09-07T16:04:53.599Z,17.10
2017-09-07T16:07:20.399Z,17.10
2017-09-07T16:09:46.446Z,17.10
2017-09-07T16:12:13.540Z,17.00
2017-09-07T16:14:39.566Z,17.00
2017-09-07T16:17:05.602Z,17.10
2017-09-07T16:19:31.623Z,17.10
2017-09-07T16:21:57.702Z,17.20
2017-09-07T16:24:23.734Z,17.10
2017-09-07T16:26:49.782Z,17.10
2017-09-07T16:29:15.839Z,17.10
2017-09-07T16:31:41.876Z,17.00
2017-09-07T16:34:08.646Z,17.10
2017-09-07T16:36:34.723Z,17.00
2017-09-07T16:39:00.791Z,17.10
2017-09-07T16:41:26.831Z,17.10
2017-09-07T16:43:52.933Z,17.00
2017-09-07T16:46:18.963Z,17.10
2017-09-07T16:48:44.987Z,17.00
2017-09-07T16:51:11.037Z,17.10
2017-09-07T16:53:37.054Z,17.10
2017-09-07T16:56:03.083Z,17.10
2017-09-07T16:58:29.372Z,17.10
2017-09-07T17:00:55.410Z,17.00
2017-09-07T17:03:21.423Z,17.00
2017-09-07T17:05:47.463Z,17.00
2017-09-07T17:08:13.506Z,17.00
2017-09-07T17:10:39.559Z,16.90
2017-09-07T17:13:05.630Z,16.90
2017-09-07T17:15:31.670Z,16.90
2017-09-07T17:17:57.685Z,16.80
2017-09-07T17:20:23.754Z,16.80
2017-09-07T17:22:49.788Z,16.70
2017-09-07T17:25:15.826Z,16.70
2017-09-07T17:27:41.887Z,16.70
2017-09-07T17:30:07.942Z,16.70
2017-09-07T17:32:33.976Z,16.70
2017-09-07T17:35:00.018Z,16.70
2017-09-07T17:37:26.041Z,16.60
2017-09-07T17:39:52.110Z,16.50
2017-09-07T17:42:18.922Z,16.40
2017-09-07T17:44:44.950Z,16.40
2017-09-07T17:47:10.970Z,16.60
2017-09-07T17:49:37.027Z,16.50
2017-09-07T17:52:03.807Z,16.40
2017-09-07T17:54:29.832Z,16.40
2017-09-07T17:56:55.881Z,16.40
2017-09-07T17:59:21.952Z,16.40
2017-09-07T18:01:47.995Z,16.30
2017-09-07T18:04:14.058Z,16.20
2017-09-07T18:06:40.830Z,16.20
2017-09-07T18:09:06.915Z,16.20
2017-09-07T18:11:33.751Z,16.20
2017-09-07T18:13:59.777Z,16.10
2017-09-07T18:16:25.810Z,16.10
2017-09-07T18:18:52.615Z,16.00
2017-09-07T18:21:18.634Z,16.00
2017-09-07T18:23:44.707Z,16.10
2017-09-07T18:26:10.761Z,16.10
2017-09-07T18:28:36.830Z,16.10
2017-09-07T18:31:03.654Z,16.20
2017-09-07T18:33:29.695Z,16.20
2017-09-07T18:35:56.474Z,16.30
2017-09-07T18:38:22.535Z,16.20
2017-09-07T18:40:48.715Z,16.30
2017-09-07T18:43:14.740Z,16.30
2017-09-07T18:45:40.758Z,16.30
2017-09-07T18:48:07.047Z,16.30
2017-09-07T18:50:33.822Z,16.20
2017-09-07T18:52:59.847Z,16.20
2017-09-07T18:55:25.899Z,16.20
2017-09-07T18:57:51.971Z,16.20
2017-09-07T19:00:18.023Z,16.20
2017-09-07T19:02:44.212Z,16.20
2017-09-07T19:05:10.983Z,16.10
2017-09-07T19:07:37.049Z,16.10
2017-09-07T19:10:03.469Z,16.20
2017-09-07T19:12:29.507Z,16.10
2017-09-07T19:14:55.575Z,16.20
2017-09-07T19:17:21.616Z,16.20
2017-09-07T19:19:47.678Z,16.10
2017-09-07T19:22:14.755Z,16.10
2017-09-07T19:24:40.856Z,16.10
2017-09-07T19:27:07.076Z,16.10
2017-09-07T19:29:33.884Z,16.10
2017-09-07T19:31:59.995Z,16.10
2017-09-07T19:34:26.075Z,16.10
2017-09-07T19:36:52.488Z,16.00
2017-09-07T19:39:19.325Z,16.00
2017-09-07T19:41:46.408Z,16.00
2017-09-07T19:44:12.463Z,16.00
2017-09-07T19:46:38.627Z,16.10
2017-09-07T19:49:07.046Z,16.00
2017-09-07T19:51:33.284Z,16.00
2017-09-07T19:53:59.323Z,16.00
2017-09-07T19:56:25.714Z,16.00
2017-09-07T19:58:51.733Z,16.00
2017-09-07T20:01:17.875Z,15.90
2017-09-07T20:03:43.954Z,15.90
2017-09-07T20:06:10.765Z,15.90
2017-09-07T20:08:36.820Z,15.90
2017-09-07T20:11:03.902Z,15.80
2017-09-07T20:13:30.177Z,15.80
2017-09-07T20:15:56.965Z,15.80
2017-09-07T20:18:23.035Z,15.80
2017-09-07T20:20:49.234Z,15.90
2017-09-07T20:23:15.283Z,15.90
2017-09-07T20:25:42.089Z,15.90
2017-09-07T20:28:08.115Z,15.80
2017-09-07T20:30:34.196Z,15.90
2017-09-07T20:33:00.255Z,15.90
2017-09-07T20:35:26.307Z,15.90
2017-09-07T20:37:52.354Z,15.90
2017-09-07T20:40:18.454Z,15.80
2017-09-07T20:42:44.522Z,15.80
2017-09-07T20:45:10.568Z,15.90
2017-09-07T20:47:36.623Z,15.90
2017-09-07T20:50:03.440Z,15.90
2017-09-07T20:52:29.460Z,15.90
2017-09-07T20:54:55.757Z,15.80
2017-09-07T20:57:21.813Z,15.80
2017-09-07T20:59:47.854Z,15.70
2017-09-07T21:02:14.235Z,15.80
2017-09-07T21:04:40.259Z,15.80
2017-09-07T21:07:06.329Z,15.80
2017-09-07T21:09:33.140Z,15.90
2017-09-07T21:11:59.177Z,15.80
2017-09-07T21:14:25.202Z,15.80
2017-09-07T21:16:51.235Z,15.80
2017-09-07T21:19:18.028Z,15.80
2017-09-07T21:21:44.062Z,15.80
2017-09-07T21:24:10.102Z,15.80
2017-09-07T21:26:36.143Z,15.80
2017-09-07T21:29:02.957Z,15.80
2017-09-07T21:31:29.031Z,15.80
2017-09-07T21:33:55.050Z,15.80
2017-09-07T21:36:21.846Z,15.90
2017-09-07T21:38:47.897Z,15.80
2017-09-07T21:41:14.654Z,15.80
2017-09-07T21:43:40.730Z,15.80
2017-09-07T21:46:06.782Z,15.80
2017-09-07T21:48:32.928Z,15.80
2017-09-07T21:50:59.010Z,15.80
2017-09-07T21:53:25.042Z,15.80
2017-09-07T21:55:51.807Z,15.80
2017-09-07T21:58:17.900Z,15.80
2017-09-07T22:00:44.663Z,15.80
2017-09-07T22:03:10.694Z,15.80
2017-09-07T22:05:36.744Z,15.80
2017-09-07T22:08:02.783Z,15.80
2017-09-07T22:10:28.807Z,15.80
2017-09-07T22:12:55.826Z,15.80
2017-09-07T22:15:21.861Z,15.70
2017-09-07T22:17:47.902Z,15.80
2017-09-07T22:20:14.695Z,15.80
2017-09-07T22:22:40.833Z,15.80
2017-09-07T22:25:06.918Z,15.80
2017-09-07T22:27:32.946Z,15.90
2017-09-07T22:29:58.992Z,15.80
2017-09-07T22:32:25.044Z,15.80
2017-09-07T22:34:51.083Z,15.90
2017-09-07T22:37:17.115Z,15.90
2017-09-07T22:39:45.431Z,15.80
2017-09-07T22:42:11.454Z,15.80
2017-09-07T22:44:37.499Z,15.80
2017-09-07T22:47:04.627Z,15.80
2017-09-07T22:49:30.680Z,15.80
2017-09-07T22:51:56.706Z,15.80
2017-09-07T22:54:23.522Z,15.70
2017-09-07T22:56:49.598Z,15.70
2017-09-07T22:59:16.366Z,15.70
2017-09-07T23:01:42.412Z,15.70
2017-09-07T23:04:08.482Z,15.70
2017-09-07T23:06:34.526Z,15.70
2017-09-07T23:09:00.574Z,15.70
2017-09-07T23:11:26.610Z,15.60
2017-09-07T23:13:52.650Z,15.60
2017-09-07T23:16:19.494Z,15.60
2017-09-07T23:18:45.568Z,15.60
2017-09-07T23:21:11.613Z,15.60
2017-09-07T23:23:38.019Z,15.60
2017-09-07T23:26:04.046Z,15.60
2017-09-07T23:28:30.085Z,15.60
2017-09-07T23:30:56.138Z,15.60
2017-09-07T23:33:22.919Z,15.60
2017-09-07T23:35:48.958Z,15.60
2017-09-07T23:38:15.051Z,15.50
2017-09-07T23:40:41.063Z,15.50
2017-09-07T23:43:07.086Z,15.50
2017-09-07T23:45:33.322Z,15.50
2017-09-07T23:47:59.351Z,15.60
2017-09-07T23:50:25.394Z,15.50
2017-09-07T23:52:51.470Z,15.40
2017-09-07T23:55:18.225Z,15.40
2017-09-07T23:57:44.254Z,15.40
